sensor_id;sensor_type;location;lat;lon;timestamp;pressure;altitude;pressure_sealevel;temperature;humidity
84835;BME280;75078;42.636;23.198;2024-01-11T00:02:00;92891.13;;;-7.89;75.78
84835;BME280;75078;42.636;23.198;2024-01-11T00:04:25;92882.88;;;-7.90;74.31
84835;BME280;75078;42.636;23.198;2024-01-11T00:06:51;92877.75;;;-7.95;73.19
84835;BME280;75078;42.636;23.198;2024-01-11T00:09:17;92876.31;;;-8.03;72.76
84835;BME280;75078;42.636;23.198;2024-01-11T00:11:42;92878.91;;;-8.09;71.60
84835;BME280;75078;42.636;23.198;2024-01-11T00:14:07;92882.56;;;-8.23;71.65
84835;BME280;75078;42.636;23.198;2024-01-11T00:16:33;92885.66;;;-8.39;72.70
84835;BME280;75078;42.636;23.198;2024-01-11T00:18:58;92880.81;;;-8.52;74.45
84835;BME280;75078;42.636;23.198;2024-01-11T00:21:24;92880.00;;;-8.46;74.33
84835;BME280;75078;42.636;23.198;2024-01-11T00:23:49;92881.50;;;-8.45;73.12
84835;BME280;75078;42.636;23.198;2024-01-11T00:26:15;92871.75;;;-8.47;73.39
84835;BME280;75078;42.636;23.198;2024-01-11T00:28:40;92865.78;;;-8.46;74.25
84835;BME280;75078;42.636;23.198;2024-01-11T00:31:06;92871.09;;;-8.42;75.21
84835;BME280;75078;42.636;23.198;2024-01-11T00:33:31;92865.34;;;-8.43;74.99
84835;BME280;75078;42.636;23.198;2024-01-11T00:35:57;92866.44;;;-8.39;74.61
84835;BME280;75078;42.636;23.198;2024-01-11T00:38:23;92865.84;;;-8.52;75.91
84835;BME280;75078;42.636;23.198;2024-01-11T00:40:48;92858.50;;;-8.47;75.13
84835;BME280;75078;42.636;23.198;2024-01-11T00:43:14;92865.47;;;-8.38;75.66
84835;BME280;75078;42.636;23.198;2024-01-11T00:45:40;92864.53;;;-8.37;75.00
84835;BME280;75078;42.636;23.198;2024-01-11T00:48:06;92860.97;;;-8.47;74.07
84835;BME280;75078;42.636;23.198;2024-01-11T00:50:31;92857.81;;;-8.54;74.39
84835;BME280;75078;42.636;23.198;2024-01-11T00:52:57;92856.31;;;-8.55;73.50
84835;BME280;75078;42.636;23.198;2024-01-11T00:55:22;92852.41;;;-8.51;73.67
84835;BME280;75078;42.636;23.198;2024-01-11T00:57:48;92849.38;;;-8.53;73.78
84835;BME280;75078;42.636;23.198;2024-01-11T01:00:13;92851.31;;;-8.55;73.17
84835;BME280;75078;42.636;23.198;2024-01-11T01:02:41;92857.81;;;-8.54;73.03
84835;BME280;75078;42.636;23.198;2024-01-11T01:05:07;92854.00;;;-8.57;73.32
84835;BME280;75078;42.636;23.198;2024-01-11T01:07:33;92850.63;;;-8.62;73.28
84835;BME280;75078;42.636;23.198;2024-01-11T01:09:58;92854.66;;;-8.80;73.51
84835;BME280;75078;42.636;23.198;2024-01-11T01:12:24;92854.66;;;-8.80;74.33
84835;BME280;75078;42.636;23.198;2024-01-11T01:14:53;92852.50;;;-8.94;74.96
84835;BME280;75078;42.636;23.198;2024-01-11T01:17:18;92854.38;;;-8.90;74.88
84835;BME280;75078;42.636;23.198;2024-01-11T01:19:44;92858.28;;;-9.12;76.09
84835;BME280;75078;42.636;23.198;2024-01-11T01:22:09;92859.09;;;-9.00;76.24
84835;BME280;75078;42.636;23.198;2024-01-11T01:24:35;92848.63;;;-8.90;76.28
84835;BME280;75078;42.636;23.198;2024-01-11T01:27:00;92854.84;;;-8.81;76.42
84835;BME280;75078;42.636;23.198;2024-01-11T01:29:26;92857.28;;;-8.74;75.31
84835;BME280;75078;42.636;23.198;2024-01-11T01:31:51;92848.84;;;-8.73;75.94
84835;BME280;75078;42.636;23.198;2024-01-11T01:34:17;92844.72;;;-8.68;75.34
84835;BME280;75078;42.636;23.198;2024-01-11T01:36:42;92838.56;;;-8.65;75.30
84835;BME280;75078;42.636;23.198;2024-01-11T01:39:08;92841.06;;;-8.65;73.52
84835;BME280;75078;42.636;23.198;2024-01-11T01:41:33;92843.00;;;-8.67;73.94
84835;BME280;75078;42.636;23.198;2024-01-11T01:43:59;92839.19;;;-8.70;73.08
84835;BME280;75078;42.636;23.198;2024-01-11T01:46:24;92828.75;;;-8.79;72.93
84835;BME280;75078;42.636;23.198;2024-01-11T01:48:51;92827.50;;;-8.88;73.51
84835;BME280;75078;42.636;23.198;2024-01-11T01:51:18;92824.06;;;-8.87;74.49
84835;BME280;75078;42.636;23.198;2024-01-11T01:53:44;92818.63;;;-8.84;74.22
84835;BME280;75078;42.636;23.198;2024-01-11T01:56:10;92815.56;;;-8.86;74.95
84835;BME280;75078;42.636;23.198;2024-01-11T01:58:36;92809.69;;;-8.73;76.00
84835;BME280;75078;42.636;23.198;2024-01-11T02:01:02;92806.13;;;-8.65;76.26
84835;BME280;75078;42.636;23.198;2024-01-11T02:03:28;92810.00;;;-8.69;74.22
84835;BME280;75078;42.636;23.198;2024-01-11T02:05:55;92804.34;;;-8.77;74.57
84835;BME280;75078;42.636;23.198;2024-01-11T02:08:22;92813.09;;;-8.86;73.18
84835;BME280;75078;42.636;23.198;2024-01-11T02:10:48;92798.97;;;-8.92;73.26
84835;BME280;75078;42.636;23.198;2024-01-11T02:13:14;92802.00;;;-8.90;74.05
84835;BME280;75078;42.636;23.198;2024-01-11T02:15:40;92804.09;;;-8.87;75.48
84835;BME280;75078;42.636;23.198;2024-01-11T02:18:06;92801.31;;;-8.79;76.59
84835;BME280;75078;42.636;23.198;2024-01-11T02:20:31;92803.56;;;-8.77;73.82
84835;BME280;75078;42.636;23.198;2024-01-11T02:23:03;92807.13;;;-8.85;72.81
84835;BME280;75078;42.636;23.198;2024-01-11T02:25:30;92806.00;;;-8.89;73.45
84835;BME280;75078;42.636;23.198;2024-01-11T02:27:55;92809.13;;;-8.93;73.93
84835;BME280;75078;42.636;23.198;2024-01-11T02:30:20;92806.63;;;-8.93;73.64
84835;BME280;75078;42.636;23.198;2024-01-11T02:32:48;92813.78;;;-8.97;73.58
84835;BME280;75078;42.636;23.198;2024-01-11T02:35:18;92803.66;;;-9.02;73.26
84835;BME280;75078;42.636;23.198;2024-01-11T02:37:44;92803.56;;;-9.07;73.02
84835;BME280;75078;42.636;23.198;2024-01-11T02:40:12;92801.88;;;-9.13;74.22
84835;BME280;75078;42.636;23.198;2024-01-11T02:42:39;92793.00;;;-9.09;75.49
84835;BME280;75078;42.636;23.198;2024-01-11T02:45:04;92790.19;;;-9.12;76.12
84835;BME280;75078;42.636;23.198;2024-01-11T02:47:30;92796.28;;;-9.08;77.06
84835;BME280;75078;42.636;23.198;2024-01-11T02:49:55;92791.34;;;-9.15;77.97
84835;BME280;75078;42.636;23.198;2024-01-11T02:52:22;92790.47;;;-9.02;78.23
84835;BME280;75078;42.636;23.198;2024-01-11T02:54:48;92782.63;;;-9.06;77.49
84835;BME280;75078;42.636;23.198;2024-01-11T02:57:13;92785.69;;;-9.22;78.13
84835;BME280;75078;42.636;23.198;2024-01-11T02:59:40;92783.56;;;-9.18;78.36
84835;BME280;75078;42.636;23.198;2024-01-11T03:02:05;92779.88;;;-9.16;76.00
84835;BME280;75078;42.636;23.198;2024-01-11T03:04:30;92768.84;;;-9.26;77.24
84835;BME280;75078;42.636;23.198;2024-01-11T03:06:56;92777.38;;;-9.16;77.98
84835;BME280;75078;42.636;23.198;2024-01-11T03:09:21;92771.78;;;-9.11;74.75
84835;BME280;75078;42.636;23.198;2024-01-11T03:11:47;92780.53;;;-9.09;74.19
84835;BME280;75078;42.636;23.198;2024-01-11T03:14:12;92789.88;;;-9.04;75.55
84835;BME280;75078;42.636;23.198;2024-01-11T03:16:38;92773.13;;;-8.97;76.68
84835;BME280;75078;42.636;23.198;2024-01-11T03:19:05;92778.78;;;-8.90;76.47
84835;BME280;75078;42.636;23.198;2024-01-11T03:21:30;92777.22;;;-8.85;76.34
84835;BME280;75078;42.636;23.198;2024-01-11T03:23:56;92770.44;;;-8.96;78.06
84835;BME280;75078;42.636;23.198;2024-01-11T03:26:22;92775.66;;;-8.86;77.69
84835;BME280;75078;42.636;23.198;2024-01-11T03:28:47;92776.91;;;-8.77;77.14
84835;BME280;75078;42.636;23.198;2024-01-11T03:31:13;92772.03;;;-8.71;76.92
84835;BME280;75078;42.636;23.198;2024-01-11T03:33:39;92768.91;;;-8.67;77.13
84835;BME280;75078;42.636;23.198;2024-01-11T03:36:11;92769.88;;;-8.68;78.28
84835;BME280;75078;42.636;23.198;2024-01-11T03:38:36;92772.22;;;-8.55;77.54
84835;BME280;75078;42.636;23.198;2024-01-11T03:41:06;92770.78;;;-8.62;73.82
84835;BME280;75078;42.636;23.198;2024-01-11T03:43:32;92762.94;;;-8.77;75.58
84835;BME280;75078;42.636;23.198;2024-01-11T03:45:57;92763.16;;;-8.67;75.89
84835;BME280;75078;42.636;23.198;2024-01-11T03:48:23;92765.78;;;-8.62;75.56
84835;BME280;75078;42.636;23.198;2024-01-11T03:50:48;92762.75;;;-8.64;73.34
84835;BME280;75078;42.636;23.198;2024-01-11T03:53:14;92756.22;;;-8.65;73.63
84835;BME280;75078;42.636;23.198;2024-01-11T03:55:39;92758.41;;;-8.69;73.38
84835;BME280;75078;42.636;23.198;2024-01-11T03:58:04;92758.59;;;-8.70;74.78
84835;BME280;75078;42.636;23.198;2024-01-11T04:00:30;92763.16;;;-8.67;76.14
84835;BME280;75078;42.636;23.198;2024-01-11T04:02:55;92768.41;;;-8.57;76.65
84835;BME280;75078;42.636;23.198;2024-01-11T04:05:21;92760.47;;;-8.54;76.00
84835;BME280;75078;42.636;23.198;2024-01-11T04:07:46;92762.09;;;-8.60;74.38
84835;BME280;75078;42.636;23.198;2024-01-11T04:10:11;92754.50;;;-8.65;74.47
84835;BME280;75078;42.636;23.198;2024-01-11T04:12:37;92757.75;;;-8.64;74.86
84835;BME280;75078;42.636;23.198;2024-01-11T04:15:03;92747.22;;;-8.66;74.15
84835;BME280;75078;42.636;23.198;2024-01-11T04:17:28;92742.09;;;-8.71;75.17
84835;BME280;75078;42.636;23.198;2024-01-11T04:19:54;92732.81;;;-8.64;75.28
84835;BME280;75078;42.636;23.198;2024-01-11T04:22:19;92735.06;;;-8.63;75.11
84835;BME280;75078;42.636;23.198;2024-01-11T04:24:45;92735.97;;;-8.57;75.94
84835;BME280;75078;42.636;23.198;2024-01-11T04:27:10;92733.22;;;-8.67;77.05
84835;BME280;75078;42.636;23.198;2024-01-11T04:29:36;92732.13;;;-8.71;77.40
84835;BME280;75078;42.636;23.198;2024-01-11T04:32:01;92733.44;;;-8.69;76.83
84835;BME280;75078;42.636;23.198;2024-01-11T04:34:27;92731.28;;;-8.65;74.38
84835;BME280;75078;42.636;23.198;2024-01-11T04:36:52;92724.78;;;-8.66;74.67
84835;BME280;75078;42.636;23.198;2024-01-11T04:39:18;92728.41;;;-8.81;73.04
84835;BME280;75078;42.636;23.198;2024-01-11T04:41:43;92729.38;;;-8.82;73.67
84835;BME280;75078;42.636;23.198;2024-01-11T04:44:08;92741.16;;;-8.89;72.84
84835;BME280;75078;42.636;23.198;2024-01-11T04:46:35;92740.50;;;-8.96;73.59
84835;BME280;75078;42.636;23.198;2024-01-11T04:49:00;92738.97;;;-8.97;74.02
84835;BME280;75078;42.636;23.198;2024-01-11T04:51:25;92745.69;;;-8.97;74.65
84835;BME280;75078;42.636;23.198;2024-01-11T04:53:51;92742.78;;;-8.94;75.15
84835;BME280;75078;42.636;23.198;2024-01-11T04:56:17;92737.38;;;-8.91;75.63
84835;BME280;75078;42.636;23.198;2024-01-11T04:58:44;92740.88;;;-8.81;76.46
84835;BME280;75078;42.636;23.198;2024-01-11T05:01:13;92745.91;;;-8.69;76.99
84835;BME280;75078;42.636;23.198;2024-01-11T05:03:38;92734.31;;;-8.63;76.57
84835;BME280;75078;42.636;23.198;2024-01-11T05:06:04;92734.97;;;-8.56;76.61
84835;BME280;75078;42.636;23.198;2024-01-11T05:08:29;92736.50;;;-8.55;74.09
84835;BME280;75078;42.636;23.198;2024-01-11T05:10:55;92739.22;;;-8.57;74.03
84835;BME280;75078;42.636;23.198;2024-01-11T05:13:20;92736.25;;;-8.65;73.50
84835;BME280;75078;42.636;23.198;2024-01-11T05:15:46;92729.09;;;-8.73;73.55
84835;BME280;75078;42.636;23.198;2024-01-11T05:18:12;92729.84;;;-8.73;74.12
84835;BME280;75078;42.636;23.198;2024-01-11T05:20:38;92724.66;;;-8.71;75.73
84835;BME280;75078;42.636;23.198;2024-01-11T05:23:03;92723.59;;;-8.64;76.19
84835;BME280;75078;42.636;23.198;2024-01-11T05:25:29;92713.69;;;-8.70;75.91
84835;BME280;75078;42.636;23.198;2024-01-11T05:27:58;92712.31;;;-8.66;75.31
84835;BME280;75078;42.636;23.198;2024-01-11T05:30:24;92707.19;;;-8.71;74.56
84835;BME280;75078;42.636;23.198;2024-01-11T05:32:49;92714.13;;;-8.73;73.08
84835;BME280;75078;42.636;23.198;2024-01-11T05:35:14;92716.06;;;-8.75;73.53
84835;BME280;75078;42.636;23.198;2024-01-11T05:37:40;92722.44;;;-8.80;72.97
84835;BME280;75078;42.636;23.198;2024-01-11T05:40:06;92714.19;;;-8.92;73.67
84835;BME280;75078;42.636;23.198;2024-01-11T05:42:31;92713.63;;;-8.94;74.79
84835;BME280;75078;42.636;23.198;2024-01-11T05:44:56;92716.00;;;-8.99;73.88
84835;BME280;75078;42.636;23.198;2024-01-11T05:47:22;92713.72;;;-9.00;73.37
84835;BME280;75078;42.636;23.198;2024-01-11T05:49:47;92717.56;;;-9.04;72.88
84835;BME280;75078;42.636;23.198;2024-01-11T05:52:13;92717.25;;;-9.08;73.20
84835;BME280;75078;42.636;23.198;2024-01-11T05:54:38;92719.19;;;-9.10;72.98
84835;BME280;75078;42.636;23.198;2024-01-11T05:57:04;92716.19;;;-9.48;75.23
84835;BME280;75078;42.636;23.198;2024-01-11T05:59:29;92716.91;;;-9.77;78.32
84835;BME280;75078;42.636;23.198;2024-01-11T06:01:54;92711.06;;;-9.53;77.76
84835;BME280;75078;42.636;23.198;2024-01-11T06:04:24;92709.97;;;-9.39;78.11
84835;BME280;75078;42.636;23.198;2024-01-11T06:06:50;92709.47;;;-9.29;77.54
84835;BME280;75078;42.636;23.198;2024-01-11T06:09:15;92706.13;;;-9.23;77.20
84835;BME280;75078;42.636;23.198;2024-01-11T06:11:40;92705.28;;;-9.17;77.39
84835;BME280;75078;42.636;23.198;2024-01-11T06:14:06;92709.44;;;-9.11;76.21
84835;BME280;75078;42.636;23.198;2024-01-11T06:16:32;92709.38;;;-9.05;76.00
84835;BME280;75078;42.636;23.198;2024-01-11T06:18:57;92704.56;;;-9.06;76.51
84835;BME280;75078;42.636;23.198;2024-01-11T06:21:22;92710.72;;;-9.09;76.28
84835;BME280;75078;42.636;23.198;2024-01-11T06:23:48;92715.56;;;-8.96;75.85
84835;BME280;75078;42.636;23.198;2024-01-11T06:26:14;92712.28;;;-9.08;77.04
84835;BME280;75078;42.636;23.198;2024-01-11T06:28:39;92704.38;;;-9.05;78.05
84835;BME280;75078;42.636;23.198;2024-01-11T06:31:05;92701.13;;;-9.05;78.69
84835;BME280;75078;42.636;23.198;2024-01-11T06:33:30;92696.28;;;-8.89;77.99
84835;BME280;75078;42.636;23.198;2024-01-11T06:35:57;92698.06;;;-8.77;76.34
84835;BME280;75078;42.636;23.198;2024-01-11T06:38:22;92700.34;;;-8.76;76.31
84835;BME280;75078;42.636;23.198;2024-01-11T06:40:48;92692.22;;;-8.71;75.93
84835;BME280;75078;42.636;23.198;2024-01-11T06:43:14;92691.44;;;-8.72;76.49
84835;BME280;75078;42.636;23.198;2024-01-11T06:45:40;92698.72;;;-8.70;74.75
84835;BME280;75078;42.636;23.198;2024-01-11T06:48:05;92684.31;;;-8.68;75.70
84835;BME280;75078;42.636;23.198;2024-01-11T06:50:31;92681.38;;;-8.65;75.32
84835;BME280;75078;42.636;23.198;2024-01-11T06:52:56;92689.63;;;-8.65;75.36
84835;BME280;75078;42.636;23.198;2024-01-11T06:55:22;92685.41;;;-8.64;75.59
84835;BME280;75078;42.636;23.198;2024-01-11T06:57:48;92681.81;;;-8.68;75.44
84835;BME280;75078;42.636;23.198;2024-01-11T07:00:13;92680.59;;;-8.66;75.02
84835;BME280;75078;42.636;23.198;2024-01-11T07:02:39;92681.28;;;-8.59;75.99
84835;BME280;75078;42.636;23.198;2024-01-11T07:05:05;92673.91;;;-8.54;76.73
84835;BME280;75078;42.636;23.198;2024-01-11T07:07:31;92677.84;;;-8.46;77.29
84835;BME280;75078;42.636;23.198;2024-01-11T07:09:58;92678.59;;;-8.34;76.93
84835;BME280;75078;42.636;23.198;2024-01-11T07:12:23;92680.78;;;-8.26;76.97
84835;BME280;75078;42.636;23.198;2024-01-11T07:14:49;92676.94;;;-8.17;76.77
84835;BME280;75078;42.636;23.198;2024-01-11T07:17:14;92678.56;;;-8.11;75.65
84835;BME280;75078;42.636;23.198;2024-01-11T07:19:40;92677.16;;;-8.07;74.91
84835;BME280;75078;42.636;23.198;2024-01-11T07:22:05;92683.03;;;-8.02;74.16
84835;BME280;75078;42.636;23.198;2024-01-11T07:24:30;92680.09;;;-7.98;75.33
84835;BME280;75078;42.636;23.198;2024-01-11T07:27:05;92672.16;;;-7.95;76.49
84835;BME280;75078;42.636;23.198;2024-01-11T07:29:31;92677.03;;;-7.89;77.37
84835;BME280;75078;42.636;23.198;2024-01-11T07:31:57;92667.50;;;-7.92;76.63
84835;BME280;75078;42.636;23.198;2024-01-11T07:34:22;92673.78;;;-7.78;77.41
84835;BME280;75078;42.636;23.198;2024-01-11T07:36:49;92672.44;;;-7.69;78.26
84835;BME280;75078;42.636;23.198;2024-01-11T07:39:14;92664.72;;;-7.56;78.87
84835;BME280;75078;42.636;23.198;2024-01-11T07:41:40;92673.94;;;-7.45;78.77
84835;BME280;75078;42.636;23.198;2024-01-11T07:44:06;92677.59;;;-7.36;79.14
84835;BME280;75078;42.636;23.198;2024-01-11T07:46:31;92675.38;;;-7.20;79.38
84835;BME280;75078;42.636;23.198;2024-01-11T07:48:56;92667.16;;;-7.04;79.28
84835;BME280;75078;42.636;23.198;2024-01-11T07:51:24;92671.34;;;-6.93;79.10
84835;BME280;75078;42.636;23.198;2024-01-11T07:53:49;92662.19;;;-6.88;79.23
84835;BME280;75078;42.636;23.198;2024-01-11T07:56:15;92671.69;;;-6.73;78.86
84835;BME280;75078;42.636;23.198;2024-01-11T07:58:40;92665.19;;;-6.58;78.93
84835;BME280;75078;42.636;23.198;2024-01-11T08:01:07;92660.94;;;-6.40;79.71
84835;BME280;75078;42.636;23.198;2024-01-11T08:03:32;92650.91;;;-6.24;79.63
84835;BME280;75078;42.636;23.198;2024-01-11T08:06:00;92649.75;;;-6.00;78.89
84835;BME280;75078;42.636;23.198;2024-01-11T08:08:25;92636.97;;;-5.76;78.45
84835;BME280;75078;42.636;23.198;2024-01-11T08:10:51;92643.56;;;-5.49;77.97
84835;BME280;75078;42.636;23.198;2024-01-11T08:13:17;92641.88;;;-5.22;76.85
84835;BME280;75078;42.636;23.198;2024-01-11T08:15:43;92635.78;;;-5.04;77.45
84835;BME280;75078;42.636;23.198;2024-01-11T08:18:08;92634.72;;;-4.81;76.32
84835;BME280;75078;42.636;23.198;2024-01-11T08:20:34;92635.97;;;-4.57;75.50
84835;BME280;75078;42.636;23.198;2024-01-11T08:22:59;92634.09;;;-4.35;74.99
84835;BME280;75078;42.636;23.198;2024-01-11T08:25:25;92636.38;;;-3.97;73.28
84835;BME280;75078;42.636;23.198;2024-01-11T08:27:50;92627.81;;;-3.49;72.78
84835;BME280;75078;42.636;23.198;2024-01-11T08:30:16;92629.41;;;-3.18;70.88
84835;BME280;75078;42.636;23.198;2024-01-11T08:32:41;92623.38;;;-3.12;71.51
84835;BME280;75078;42.636;23.198;2024-01-11T08:35:11;92624.97;;;-2.70;69.35
84835;BME280;75078;42.636;23.198;2024-01-11T08:37:37;92624.50;;;-2.47;68.53
84835;BME280;75078;42.636;23.198;2024-01-11T08:40:03;92631.03;;;-2.21;68.96
84835;BME280;75078;42.636;23.198;2024-01-11T08:42:32;92622.44;;;-2.00;68.69
84835;BME280;75078;42.636;23.198;2024-01-11T08:44:57;92619.91;;;-2.10;66.78
84835;BME280;75078;42.636;23.198;2024-01-11T08:47:23;92627.50;;;-2.05;66.59
84835;BME280;75078;42.636;23.198;2024-01-11T08:49:48;92622.94;;;-1.88;67.87
84835;BME280;75078;42.636;23.198;2024-01-11T08:52:15;92624.91;;;-1.70;66.78
84835;BME280;75078;42.636;23.198;2024-01-11T08:54:41;92616.28;;;-1.59;64.69
84835;BME280;75078;42.636;23.198;2024-01-11T08:57:06;92615.97;;;-1.42;62.61
84835;BME280;75078;42.636;23.198;2024-01-11T08:59:31;92613.47;;;-1.47;61.97
84835;BME280;75078;42.636;23.198;2024-01-11T09:01:58;92613.50;;;-1.57;64.45
84835;BME280;75078;42.636;23.198;2024-01-11T09:04:23;92601.38;;;-1.55;62.53
84835;BME280;75078;42.636;23.198;2024-01-11T09:06:48;92599.06;;;-1.47;64.46
84835;BME280;75078;42.636;23.198;2024-01-11T09:09:14;92596.53;;;-1.41;63.20
84835;BME280;75078;42.636;23.198;2024-01-11T09:11:40;92603.00;;;-1.20;61.86
84835;BME280;75078;42.636;23.198;2024-01-11T09:14:06;92595.88;;;-1.08;61.29
84835;BME280;75078;42.636;23.198;2024-01-11T09:16:32;92595.22;;;-0.85;61.41
84835;BME280;75078;42.636;23.198;2024-01-11T09:18:58;92594.47;;;-0.47;61.58
84835;BME280;75078;42.636;23.198;2024-01-11T09:21:26;92592.75;;;-0.23;60.45
84835;BME280;75078;42.636;23.198;2024-01-11T09:23:51;92589.06;;;-0.07;57.82
84835;BME280;75078;42.636;23.198;2024-01-11T09:26:17;92590.53;;;-0.01;56.02
84835;BME280;75078;42.636;23.198;2024-01-11T09:28:42;92586.16;;;0.34;57.30
84835;BME280;75078;42.636;23.198;2024-01-11T09:31:08;92590.44;;;0.57;55.79
84835;BME280;75078;42.636;23.198;2024-01-11T09:33:33;92575.59;;;0.27;53.86
84835;BME280;75078;42.636;23.198;2024-01-11T09:35:59;92571.25;;;0.04;54.49
84835;BME280;75078;42.636;23.198;2024-01-11T09:38:24;92575.75;;;-0.17;55.69
84835;BME280;75078;42.636;23.198;2024-01-11T09:40:59;92567.69;;;0.05;56.26
84835;BME280;75078;42.636;23.198;2024-01-11T09:43:31;92566.63;;;0.34;51.10
84835;BME280;75078;42.636;23.198;2024-01-11T09:45:58;92566.19;;;0.04;53.20
84835;BME280;75078;42.636;23.198;2024-01-11T09:48:24;92558.41;;;0.24;52.67
84835;BME280;75078;42.636;23.198;2024-01-11T09:50:50;92560.13;;;0.52;53.73
84835;BME280;75078;42.636;23.198;2024-01-11T09:53:18;92548.00;;;0.86;51.51
84835;BME280;75078;42.636;23.198;2024-01-11T09:55:46;92543.41;;;1.07;52.04
84835;BME280;75078;42.636;23.198;2024-01-11T09:58:12;92539.56;;;1.28;51.46
84835;BME280;75078;42.636;23.198;2024-01-11T10:00:39;92535.41;;;1.18;54.01
84835;BME280;75078;42.636;23.198;2024-01-11T10:03:06;92530.53;;;1.22;51.42
84835;BME280;75078;42.636;23.198;2024-01-11T10:05:33;92533.38;;;0.83;52.04
84835;BME280;75078;42.636;23.198;2024-01-11T10:07:59;92534.59;;;1.04;52.44
84835;BME280;75078;42.636;23.198;2024-01-11T10:10:24;92528.50;;;1.05;50.56
84835;BME280;75078;42.636;23.198;2024-01-11T10:12:50;92532.97;;;0.76;52.04
84835;BME280;75078;42.636;23.198;2024-01-11T10:15:16;92518.09;;;0.88;53.08
84835;BME280;75078;42.636;23.198;2024-01-11T10:17:42;92514.81;;;1.06;53.46
84835;BME280;75078;42.636;23.198;2024-01-11T10:20:15;92512.88;;;1.17;51.29
84835;BME280;75078;42.636;23.198;2024-01-11T10:22:40;92514.94;;;0.96;51.28
84835;BME280;75078;42.636;23.198;2024-01-11T10:25:09;92514.66;;;0.60;53.57
84835;BME280;75078;42.636;23.198;2024-01-11T10:27:37;92504.88;;;0.91;52.56
84835;BME280;75078;42.636;23.198;2024-01-11T10:30:02;92503.75;;;1.16;51.85
84835;BME280;75078;42.636;23.198;2024-01-11T10:32:28;92494.28;;;1.21;51.51
84835;BME280;75078;42.636;23.198;2024-01-11T10:34:53;92485.78;;;1.31;50.04
84835;BME280;75078;42.636;23.198;2024-01-11T10:37:21;92488.69;;;1.24;52.17
84835;BME280;75078;42.636;23.198;2024-01-11T10:39:48;92476.28;;;1.36;50.31
84835;BME280;75078;42.636;23.198;2024-01-11T10:42:20;92474.00;;;1.21;51.50
84835;BME280;75078;42.636;23.198;2024-01-11T10:44:52;92479.31;;;1.06;51.08
84835;BME280;75078;42.636;23.198;2024-01-11T10:47:21;92466.97;;;1.00;51.99
84835;BME280;75078;42.636;23.198;2024-01-11T10:49:50;92471.94;;;1.23;52.19
84835;BME280;75078;42.636;23.198;2024-01-11T10:52:18;92460.66;;;1.62;51.80
84835;BME280;75078;42.636;23.198;2024-01-11T10:54:48;92454.84;;;1.88;50.07
84835;BME280;75078;42.636;23.198;2024-01-11T10:57:16;92453.22;;;1.92;52.49
84835;BME280;75078;42.636;23.198;2024-01-11T10:59:41;92444.97;;;2.00;49.19
84835;BME280;75078;42.636;23.198;2024-01-11T11:02:09;92442.03;;;2.21;50.74
84835;BME280;75078;42.636;23.198;2024-01-11T11:04:38;92432.53;;;2.26;51.04
84835;BME280;75078;42.636;23.198;2024-01-11T11:07:05;92436.50;;;2.05;49.75
84835;BME280;75078;42.636;23.198;2024-01-11T11:09:34;92426.09;;;2.42;47.73
84835;BME280;75078;42.636;23.198;2024-01-11T11:12:00;92413.94;;;2.17;49.45
84835;BME280;75078;42.636;23.198;2024-01-11T11:14:27;92414.44;;;2.41;53.29
84835;BME280;75078;42.636;23.198;2024-01-11T11:16:53;92411.31;;;2.80;48.89
84835;BME280;75078;42.636;23.198;2024-01-11T11:19:20;92398.41;;;2.99;48.86
84835;BME280;75078;42.636;23.198;2024-01-11T11:21:47;92404.78;;;3.10;48.75
84835;BME280;75078;42.636;23.198;2024-01-11T11:24:13;92396.97;;;3.37;49.22
84835;BME280;75078;42.636;23.198;2024-01-11T11:26:39;92384.97;;;3.68;49.62
84835;BME280;75078;42.636;23.198;2024-01-11T11:29:05;92387.69;;;3.80;48.44
84835;BME280;75078;42.636;23.198;2024-01-11T11:33:59;92378.09;;;3.69;49.38
84835;BME280;75078;42.636;23.198;2024-01-11T11:36:29;92369.47;;;3.47;50.83
84835;BME280;75078;42.636;23.198;2024-01-11T11:38:54;92368.31;;;3.62;48.65
84835;BME280;75078;42.636;23.198;2024-01-11T11:41:25;92367.28;;;3.63;49.89
84835;BME280;75078;42.636;23.198;2024-01-11T11:43:51;92365.06;;;3.70;48.74
84835;BME280;75078;42.636;23.198;2024-01-11T11:46:16;92355.44;;;3.58;48.83
84835;BME280;75078;42.636;23.198;2024-01-11T11:48:51;92350.56;;;3.31;50.32
84835;BME280;75078;42.636;23.198;2024-01-11T11:51:18;92354.53;;;3.54;48.71
84835;BME280;75078;42.636;23.198;2024-01-11T11:53:46;92353.47;;;3.47;48.41
84835;BME280;75078;42.636;23.198;2024-01-11T11:56:12;92355.69;;;3.09;49.97
84835;BME280;75078;42.636;23.198;2024-01-11T11:58:40;92348.16;;;3.35;49.02
84835;BME280;75078;42.636;23.198;2024-01-11T12:01:05;92338.88;;;3.78;47.55
84835;BME280;75078;42.636;23.198;2024-01-11T12:03:34;92347.63;;;4.28;47.70
84835;BME280;75078;42.636;23.198;2024-01-11T12:06:02;92335.34;;;4.13;46.91
84835;BME280;75078;42.636;23.198;2024-01-11T12:08:29;92325.75;;;4.45;47.55
84835;BME280;75078;42.636;23.198;2024-01-11T12:10:54;92324.53;;;4.68;47.90
84835;BME280;75078;42.636;23.198;2024-01-11T12:13:20;92327.84;;;4.77;45.53
84835;BME280;75078;42.636;23.198;2024-01-11T12:15:46;92315.53;;;4.70;46.24
84835;BME280;75078;42.636;23.198;2024-01-11T12:18:11;92326.19;;;4.12;47.68
84835;BME280;75078;42.636;23.198;2024-01-11T12:20:37;92317.50;;;4.56;46.73
84835;BME280;75078;42.636;23.198;2024-01-11T12:23:02;92308.78;;;4.57;45.24
84835;BME280;75078;42.636;23.198;2024-01-11T12:25:28;92315.25;;;4.38;49.43
84835;BME280;75078;42.636;23.198;2024-01-11T12:27:57;92304.31;;;4.54;48.24
84835;BME280;75078;42.636;23.198;2024-01-11T12:30:23;92303.84;;;4.61;48.47
84835;BME280;75078;42.636;23.198;2024-01-11T12:32:49;92306.88;;;4.28;47.91
84835;BME280;75078;42.636;23.198;2024-01-11T12:35:15;92312.53;;;3.91;47.33
84835;BME280;75078;42.636;23.198;2024-01-11T12:37:41;92304.41;;;3.55;49.25
84835;BME280;75078;42.636;23.198;2024-01-11T12:40:07;92300.69;;;3.22;50.13
84835;BME280;75078;42.636;23.198;2024-01-11T12:42:35;92300.28;;;2.98;50.94
84835;BME280;75078;42.636;23.198;2024-01-11T12:45:01;92294.81;;;2.29;52.20
84835;BME280;75078;42.636;23.198;2024-01-11T12:47:26;92302.28;;;1.90;55.03
84835;BME280;75078;42.636;23.198;2024-01-11T12:49:52;92295.84;;;1.92;54.26